sensor_id;sensor_type;location;lat;lon;timestamp;temperature;humidity
20654;DHT22;21083;50.898;4.902;2024-02-21T00:01:34;9.50;99.90
20654;DHT22;21083;50.898;4.902;2024-02-21T00:04:01;9.50;99.90
20654;DHT22;21083;50.898;4.902;2024-02-21T00:06:29;9.50;99.90
20654;DHT22;21083;50.898;4.902;2024-02-21T00:08:57;9.50;99.90
20654;DHT22;21083;50.898;4.902;2024-02-21T00:11:25;9.50;99.90
20654;DHT22;21083;50.898;4.902;2024-02-21T00:13:54;9.50;99.90
20654;DHT22;21083;50.898;4.902;2024-02-21T00:16:22;9.50;99.90
20654;DHT22;21083;50.898;4.902;2024-02-21T00:18:49;9.50;99.90
20654;DHT22;21083;50.898;4.902;2024-02-21T00:21:16;9.50;99.90
20654;DHT22;21083;50.898;4.902;2024-02-21T00:23:44;9.50;99.90
20654;DHT22;21083;50.898;4.902;2024-02-21T00:26:12;9.50;99.90
20654;DHT22;21083;50.898;4.902;2024-02-21T00:28:40;9.60;99.90
20654;DHT22;21083;50.898;4.902;2024-02-21T00:31:10;9.60;99.90
20654;DHT22;21083;50.898;4.902;2024-02-21T00:33:37;9.60;99.90
20654;DHT22;21083;50.898;4.902;2024-02-21T00:36:05;9.50;99.90
20654;DHT22;21083;50.898;4.902;2024-02-21T00:38:33;9.50;99.90
20654;DHT22;21083;50.898;4.902;2024-02-21T00:41:00;9.50;99.90
20654;DHT22;21083;50.898;4.902;2024-02-21T00:43:28;9.40;99.90
20654;DHT22;21083;50.898;4.902;2024-02-21T00:45:56;9.60;99.90
20654;DHT22;21083;50.898;4.902;2024-02-21T00:48:25;9.50;99.90
20654;DHT22;21083;50.898;4.902;2024-02-21T00:50:52;9.50;99.90
20654;DHT22;21083;50.898;4.902;2024-02-21T00:53:19;9.60;99.90
20654;DHT22;21083;50.898;4.902;2024-02-21T00:55:49;9.60;99.90
20654;DHT22;21083;50.898;4.902;2024-02-21T00:58:16;9.60;99.90
20654;DHT22;21083;50.898;4.902;2024-02-21T01:00:44;9.50;99.90
20654;DHT22;21083;50.898;4.902;2024-02-21T01:03:11;9.60;99.90
20654;DHT22;21083;50.898;4.902;2024-02-21T01:05:40;9.70;99.90
20654;DHT22;21083;50.898;4.902;2024-02-21T01:08:07;9.60;99.90
20654;DHT22;21083;50.898;4.902;2024-02-21T01:10:34;9.70;99.90
20654;DHT22;21083;50.898;4.902;2024-02-21T01:13:02;9.70;99.90
20654;DHT22;21083;50.898;4.902;2024-02-21T01:15:29;9.60;99.90
20654;DHT22;21083;50.898;4.902;2024-02-21T01:17:57;9.70;99.90
20654;DHT22;21083;50.898;4.902;2024-02-21T01:20:24;9.70;99.90
20654;DHT22;21083;50.898;4.902;2024-02-21T01:22:53;9.70;99.90
20654;DHT22;21083;50.898;4.902;2024-02-21T01:25:23;9.60;99.90
20654;DHT22;21083;50.898;4.902;2024-02-21T01:27:50;9.60;99.90
20654;DHT22;21083;50.898;4.902;2024-02-21T01:30:18;9.60;99.90
20654;DHT22;21083;50.898;4.902;2024-02-21T01:32:46;9.50;99.90
20654;DHT22;21083;50.898;4.902;2024-02-21T01:35:16;9.50;99.90
20654;DHT22;21083;50.898;4.902;2024-02-21T01:37:44;9.50;99.90
20654;DHT22;21083;50.898;4.902;2024-02-21T01:40:14;9.60;99.90
20654;DHT22;21083;50.898;4.902;2024-02-21T01:42:42;9.60;99.90
20654;DHT22;21083;50.898;4.902;2024-02-21T01:45:10;9.60;99.90
20654;DHT22;21083;50.898;4.902;2024-02-21T01:47:38;9.60;99.90
20654;DHT22;21083;50.898;4.902;2024-02-21T01:50:06;9.60;99.90
20654;DHT22;21083;50.898;4.902;2024-02-21T01:52:35;9.50;99.90
20654;DHT22;21083;50.898;4.902;2024-02-21T01:55:03;9.50;99.90
20654;DHT22;21083;50.898;4.902;2024-02-21T01:57:32;9.50;99.90
20654;DHT22;21083;50.898;4.902;2024-02-21T02:00:02;9.50;99.90
20654;DHT22;21083;50.898;4.902;2024-02-21T02:02:29;9.40;99.90
20654;DHT22;21083;50.898;4.902;2024-02-21T02:04:57;9.50;99.90
20654;DHT22;21083;50.898;4.902;2024-02-21T02:07:24;9.30;99.90
20654;DHT22;21083;50.898;4.902;2024-02-21T02:09:51;9.40;99.90
20654;DHT22;21083;50.898;4.902;2024-02-21T02:12:19;9.50;99.90
20654;DHT22;21083;50.898;4.902;2024-02-21T02:14:58;9.60;99.90
20654;DHT22;21083;50.898;4.902;2024-02-21T02:17:25;9.60;99.90
20654;DHT22;21083;50.898;4.902;2024-02-21T02:19:53;9.60;99.90
20654;DHT22;21083;50.898;4.902;2024-02-21T02:22:24;9.60;99.90
20654;DHT22;21083;50.898;4.902;2024-02-21T02:25:02;9.60;99.90
20654;DHT22;21083;50.898;4.902;2024-02-21T02:27:31;9.70;99.90
20654;DHT22;21083;50.898;4.902;2024-02-21T02:29:59;9.70;99.90
20654;DHT22;21083;50.898;4.902;2024-02-21T02:32:26;9.70;99.90
20654;DHT22;21083;50.898;4.902;2024-02-21T02:34:55;9.50;99.90
20654;DHT22;21083;50.898;4.902;2024-02-21T02:37:22;9.50;99.90
20654;DHT22;21083;50.898;4.902;2024-02-21T02:39:49;9.50;99.90
20654;DHT22;21083;50.898;4.902;2024-02-21T02:42:19;9.50;99.90
20654;DHT22;21083;50.898;4.902;2024-02-21T02:44:46;9.50;99.90
20654;DHT22;21083;50.898;4.902;2024-02-21T02:47:14;9.40;99.90
20654;DHT22;21083;50.898;4.902;2024-02-21T02:49:41;9.40;99.90
20654;DHT22;21083;50.898;4.902;2024-02-21T02:52:09;9.50;99.90
20654;DHT22;21083;50.898;4.902;2024-02-21T02:54:45;9.50;99.90
20654;DHT22;21083;50.898;4.902;2024-02-21T02:57:20;9.50;99.90
20654;DHT22;21083;50.898;4.902;2024-02-21T02:59:48;9.40;99.90
20654;DHT22;21083;50.898;4.902;2024-02-21T03:02:17;9.40;99.90
20654;DHT22;21083;50.898;4.902;2024-02-21T03:04:44;9.40;99.90
20654;DHT22;21083;50.898;4.902;2024-02-21T03:07:14;9.40;99.90
20654;DHT22;21083;50.898;4.902;2024-02-21T03:09:42;9.50;99.90
20654;DHT22;21083;50.898;4.902;2024-02-21T03:12:10;9.40;99.90
20654;DHT22;21083;50.898;4.902;2024-02-21T03:14:41;9.40;99.90
20654;DHT22;21083;50.898;4.902;2024-02-21T03:17:09;9.30;99.90
20654;DHT22;21083;50.898;4.902;2024-02-21T03:19:36;9.50;99.90
20654;DHT22;21083;50.898;4.902;2024-02-21T03:22:03;9.50;99.90
20654;DHT22;21083;50.898;4.902;2024-02-21T03:24:34;9.60;99.90
20654;DHT22;21083;50.898;4.902;2024-02-21T03:27:02;9.60;99.90
20654;DHT22;21083;50.898;4.902;2024-02-21T03:29:29;9.60;99.90
20654;DHT22;21083;50.898;4.902;2024-02-21T03:31:58;9.60;99.90
20654;DHT22;21083;50.898;4.902;2024-02-21T03:34:27;9.70;99.90
20654;DHT22;21083;50.898;4.902;2024-02-21T03:36:55;9.70;99.90
20654;DHT22;21083;50.898;4.902;2024-02-21T03:39:22;9.60;99.90
20654;DHT22;21083;50.898;4.902;2024-02-21T03:41:50;9.50;99.90
20654;DHT22;21083;50.898;4.902;2024-02-21T03:44:17;9.60;99.90
20654;DHT22;21083;50.898;4.902;2024-02-21T03:46:45;9.60;99.90
20654;DHT22;21083;50.898;4.902;2024-02-21T03:49:14;9.60;99.90
20654;DHT22;21083;50.898;4.902;2024-02-21T03:51:42;9.60;99.90
20654;DHT22;21083;50.898;4.902;2024-02-21T03:54:10;9.50;99.90
20654;DHT22;21083;50.898;4.902;2024-02-21T03:56:39;9.40;99.90
20654;DHT22;21083;50.898;4.902;2024-02-21T03:59:07;9.50;99.90
20654;DHT22;21083;50.898;4.902;2024-02-21T04:01:35;9.60;99.90
20654;DHT22;21083;50.898;4.902;2024-02-21T04:04:02;9.60;99.90
20654;DHT22;21083;50.898;4.902;2024-02-21T04:06:31;9.50;99.90
20654;DHT22;21083;50.898;4.902;2024-02-21T04:08:59;9.50;99.90
20654;DHT22;21083;50.898;4.902;2024-02-21T04:11:27;9.50;99.90
20654;DHT22;21083;50.898;4.902;2024-02-21T04:13:56;9.50;99.90
20654;DHT22;21083;50.898;4.902;2024-02-21T04:16:24;9.40;99.90
20654;DHT22;21083;50.898;4.902;2024-02-21T04:18:52;9.40;99.90
20654;DHT22;21083;50.898;4.902;2024-02-21T04:21:19;9.40;99.90
20654;DHT22;21083;50.898;4.902;2024-02-21T04:23:48;9.30;99.90
20654;DHT22;21083;50.898;4.902;2024-02-21T04:26:16;9.30;99.90
20654;DHT22;21083;50.898;4.902;2024-02-21T04:28:45;9.30;99.90
20654;DHT22;21083;50.898;4.902;2024-02-21T04:31:12;9.20;99.90
20654;DHT22;21083;50.898;4.902;2024-02-21T04:33:40;9.30;99.90
20654;DHT22;21083;50.898;4.902;2024-02-21T04:36:07;9.40;99.90
20654;DHT22;21083;50.898;4.902;2024-02-21T04:38:35;9.50;99.90
20654;DHT22;21083;50.898;4.902;2024-02-21T04:41:03;9.60;99.90
20654;DHT22;21083;50.898;4.902;2024-02-21T04:43:31;9.50;99.90
20654;DHT22;21083;50.898;4.902;2024-02-21T04:45:58;9.50;99.90
20654;DHT22;21083;50.898;4.902;2024-02-21T04:48:26;9.50;99.90
20654;DHT22;21083;50.898;4.902;2024-02-21T04:50:53;9.50;99.90
20654;DHT22;21083;50.898;4.902;2024-02-21T04:53:21;9.40;99.90
20654;DHT22;21083;50.898;4.902;2024-02-21T04:55:48;9.40;99.90
20654;DHT22;21083;50.898;4.902;2024-02-21T04:58:17;9.40;99.90
20654;DHT22;21083;50.898;4.902;2024-02-21T05:00:45;9.50;99.90
20654;DHT22;21083;50.898;4.902;2024-02-21T05:03:13;9.50;99.90
20654;DHT22;21083;50.898;4.902;2024-02-21T05:05:40;9.50;99.90
20654;DHT22;21083;50.898;4.902;2024-02-21T05:08:09;9.50;99.90
20654;DHT22;21083;50.898;4.902;2024-02-21T05:10:37;9.40;99.90
20654;DHT22;21083;50.898;4.902;2024-02-21T05:13:05;9.40;99.90
20654;DHT22;21083;50.898;4.902;2024-02-21T05:15:33;9.50;99.90
20654;DHT22;21083;50.898;4.902;2024-02-21T05:18:01;9.50;99.90
20654;DHT22;21083;50.898;4.902;2024-02-21T05:20:28;9.50;99.90
20654;DHT22;21083;50.898;4.902;2024-02-21T05:22:56;9.40;99.90
20654;DHT22;21083;50.898;4.902;2024-02-21T05:25:25;9.50;99.90
20654;DHT22;21083;50.898;4.902;2024-02-21T05:27:52;9.50;99.90
20654;DHT22;21083;50.898;4.902;2024-02-21T05:30:22;9.50;99.90
20654;DHT22;21083;50.898;4.902;2024-02-21T05:32:51;9.40;99.90
20654;DHT22;21083;50.898;4.902;2024-02-21T05:35:18;9.40;99.90
20654;DHT22;21083;50.898;4.902;2024-02-21T05:37:47;9.50;99.90
20654;DHT22;21083;50.898;4.902;2024-02-21T05:40:21;9.60;99.90
20654;DHT22;21083;50.898;4.902;2024-02-21T05:42:49;9.60;99.90
20654;DHT22;21083;50.898;4.902;2024-02-21T05:45:17;9.50;99.90
20654;DHT22;21083;50.898;4.902;2024-02-21T05:47:45;9.40;99.90
20654;DHT22;21083;50.898;4.902;2024-02-21T05:50:15;9.30;99.90
20654;DHT22;21083;50.898;4.902;2024-02-21T05:52:46;9.50;99.90
20654;DHT22;21083;50.898;4.902;2024-02-21T05:55:15;9.60;99.90
20654;DHT22;21083;50.898;4.902;2024-02-21T05:57:42;9.70;99.90
20654;DHT22;21083;50.898;4.902;2024-02-21T06:00:11;9.60;99.90
20654;DHT22;21083;50.898;4.902;2024-02-21T06:02:38;9.50;99.90
20654;DHT22;21083;50.898;4.902;2024-02-21T06:05:08;9.40;99.90
20654;DHT22;21083;50.898;4.902;2024-02-21T06:07:42;9.40;99.90
20654;DHT22;21083;50.898;4.902;2024-02-21T06:10:10;9.30;99.90
20654;DHT22;21083;50.898;4.902;2024-02-21T06:12:37;9.40;99.90
20654;DHT22;21083;50.898;4.902;2024-02-21T06:15:05;9.30;99.90
20654;DHT22;21083;50.898;4.902;2024-02-21T06:17:33;9.40;99.90
20654;DHT22;21083;50.898;4.902;2024-02-21T06:20:01;9.40;99.90
20654;DHT22;21083;50.898;4.902;2024-02-21T06:22:30;9.40;99.90
20654;DHT22;21083;50.898;4.902;2024-02-21T06:25:00;9.40;99.90
20654;DHT22;21083;50.898;4.902;2024-02-21T06:27:28;9.50;99.90
20654;DHT22;21083;50.898;4.902;2024-02-21T06:29:56;9.40;99.90
20654;DHT22;21083;50.898;4.902;2024-02-21T06:32:23;9.50;99.90
20654;DHT22;21083;50.898;4.902;2024-02-21T06:34:51;9.50;99.90
20654;DHT22;21083;50.898;4.902;2024-02-21T06:37:18;9.40;99.90
20654;DHT22;21083;50.898;4.902;2024-02-21T06:39:46;9.50;99.90
20654;DHT22;21083;50.898;4.902;2024-02-21T06:42:17;9.40;99.90
20654;DHT22;21083;50.898;4.902;2024-02-21T06:44:46;9.30;99.90
20654;DHT22;21083;50.898;4.902;2024-02-21T06:47:13;9.30;99.90
20654;DHT22;21083;50.898;4.902;2024-02-21T06:49:42;9.30;99.90
20654;DHT22;21083;50.898;4.902;2024-02-21T06:52:09;9.30;99.90
20654;DHT22;21083;50.898;4.902;2024-02-21T06:54:37;9.30;99.90
20654;DHT22;21083;50.898;4.902;2024-02-21T06:57:05;9.40;99.90
20654;DHT22;21083;50.898;4.902;2024-02-21T06:59:34;9.40;99.90
20654;DHT22;21083;50.898;4.902;2024-02-21T07:02:06;9.30;99.90
20654;DHT22;21083;50.898;4.902;2024-02-21T07:04:34;9.40;99.90
20654;DHT22;21083;50.898;4.902;2024-02-21T07:07:04;9.30;99.90
20654;DHT22;21083;50.898;4.902;2024-02-21T07:09:32;9.30;99.90
20654;DHT22;21083;50.898;4.902;2024-02-21T07:12:03;9.30;99.90
20654;DHT22;21083;50.898;4.902;2024-02-21T07:14:35;9.30;99.90
20654;DHT22;21083;50.898;4.902;2024-02-21T07:17:03;9.20;99.90
20654;DHT22;21083;50.898;4.902;2024-02-21T07:19:31;9.20;99.90
20654;DHT22;21083;50.898;4.902;2024-02-21T07:22:06;9.30;99.90
20654;DHT22;21083;50.898;4.902;2024-02-21T07:24:35;9.30;99.90
20654;DHT22;21083;50.898;4.902;2024-02-21T07:27:03;9.20;99.90
20654;DHT22;21083;50.898;4.902;2024-02-21T07:29:31;9.20;99.90
20654;DHT22;21083;50.898;4.902;2024-02-21T07:32:01;9.40;99.90
20654;DHT22;21083;50.898;4.902;2024-02-21T07:34:31;9.50;99.90
20654;DHT22;21083;50.898;4.902;2024-02-21T07:36:59;9.30;99.90
20654;DHT22;21083;50.898;4.902;2024-02-21T07:39:29;9.20;99.90
20654;DHT22;21083;50.898;4.902;2024-02-21T07:41:57;9.10;99.90
20654;DHT22;21083;50.898;4.902;2024-02-21T07:44:24;9.10;99.90
20654;DHT22;21083;50.898;4.902;2024-02-21T07:46:55;9.10;99.90
20654;DHT22;21083;50.898;4.902;2024-02-21T07:49:30;9.10;99.90
20654;DHT22;21083;50.898;4.902;2024-02-21T07:52:00;9.10;99.90
20654;DHT22;21083;50.898;4.902;2024-02-21T07:54:29;9.10;99.90
20654;DHT22;21083;50.898;4.902;2024-02-21T07:57:02;9.10;99.90
20654;DHT22;21083;50.898;4.902;2024-02-21T07:59:30;9.10;99.90
20654;DHT22;21083;50.898;4.902;2024-02-21T08:01:58;9.10;99.90
20654;DHT22;21083;50.898;4.902;2024-02-21T08:04:28;9.20;99.90
20654;DHT22;21083;50.898;4.902;2024-02-21T08:07:02;9.30;99.90
20654;DHT22;21083;50.898;4.902;2024-02-21T08:09:32;9.30;99.90
20654;DHT22;21083;50.898;4.902;2024-02-21T08:11:59;9.30;99.90
20654;DHT22;21083;50.898;4.902;2024-02-21T08:14:26;9.30;99.90
20654;DHT22;21083;50.898;4.902;2024-02-21T08:16:54;9.40;99.90
20654;DHT22;21083;50.898;4.902;2024-02-21T08:19:22;9.50;99.90
20654;DHT22;21083;50.898;4.902;2024-02-21T08:21:51;9.50;99.90
20654;DHT22;21083;50.898;4.902;2024-02-21T08:24:19;9.50;99.90
20654;DHT22;21083;50.898;4.902;2024-02-21T08:26:49;9.50;99.90
20654;DHT22;21083;50.898;4.902;2024-02-21T08:29:18;9.60;99.90
20654;DHT22;21083;50.898;4.902;2024-02-21T08:31:45;9.60;99.90
20654;DHT22;21083;50.898;4.902;2024-02-21T08:34:13;9.60;99.90
20654;DHT22;21083;50.898;4.902;2024-02-21T08:36:42;9.60;99.90
20654;DHT22;21083;50.898;4.902;2024-02-21T08:39:11;9.70;99.90
20654;DHT22;21083;50.898;4.902;2024-02-21T08:41:42;9.80;99.90
20654;DHT22;21083;50.898;4.902;2024-02-21T08:44:10;9.80;99.90
20654;DHT22;21083;50.898;4.902;2024-02-21T08:46:37;9.80;99.90
20654;DHT22;21083;50.898;4.902;2024-02-21T08:49:07;9.80;99.90
20654;DHT22;21083;50.898;4.902;2024-02-21T08:51:35;9.80;99.90
20654;DHT22;21083;50.898;4.902;2024-02-21T08:54:07;9.70;99.90
20654;DHT22;21083;50.898;4.902;2024-02-21T08:56:42;9.80;99.90
20654;DHT22;21083;50.898;4.902;2024-02-21T08:59:15;9.90;99.90
20654;DHT22;21083;50.898;4.902;2024-02-21T09:01:49;9.90;99.90
20654;DHT22;21083;50.898;4.902;2024-02-21T09:04:17;9.70;99.90
20654;DHT22;21083;50.898;4.902;2024-02-21T09:06:46;9.60;99.90
20654;DHT22;21083;50.898;4.902;2024-02-21T09:09:13;9.60;99.90
20654;DHT22;21083;50.898;4.902;2024-02-21T09:11:42;9.70;99.90
20654;DHT22;21083;50.898;4.902;2024-02-21T09:14:09;9.70;99.90
20654;DHT22;21083;50.898;4.902;2024-02-21T09:16:37;9.80;99.90
20654;DHT22;21083;50.898;4.902;2024-02-21T09:19:06;9.80;99.90
20654;DHT22;21083;50.898;4.902;2024-02-21T09:21:36;9.70;99.90
20654;DHT22;21083;50.898;4.902;2024-02-21T09:24:06;9.70;99.90
20654;DHT22;21083;50.898;4.902;2024-02-21T09:26:33;9.80;99.90
20654;DHT22;21083;50.898;4.902;2024-02-21T09:29:02;9.80;99.90
20654;DHT22;21083;50.898;4.902;2024-02-21T09:31:29;9.90;99.90
20654;DHT22;21083;50.898;4.902;2024-02-21T09:33:58;9.90;99.90
20654;DHT22;21083;50.898;4.902;2024-02-21T09:36:25;9.90;99.90
20654;DHT22;21083;50.898;4.902;2024-02-21T09:38:52;9.90;99.90
20654;DHT22;21083;50.898;4.902;2024-02-21T09:41:25;10.00;99.90
20654;DHT22;21083;50.898;4.902;2024-02-21T09:43:53;10.00;99.90
20654;DHT22;21083;50.898;4.902;2024-02-21T09:46:33;10.00;99.90
20654;DHT22;21083;50.898;4.902;2024-02-21T09:49:14;10.10;99.90
20654;DHT22;21083;50.898;4.902;2024-02-21T09:51:49;10.10;99.90
20654;DHT22;21083;50.898;4.902;2024-02-21T09:54:18;10.10;99.90
20654;DHT22;21083;50.898;4.902;2024-02-21T09:56:46;10.10;99.90
20654;DHT22;21083;50.898;4.902;2024-02-21T09:59:14;10.30;99.90
20654;DHT22;21083;50.898;4.902;2024-02-21T10:01:44;10.30;99.90
20654;DHT22;21083;50.898;4.902;2024-02-21T10:04:13;10.30;99.90
20654;DHT22;21083;50.898;4.902;2024-02-21T10:06:40;10.50;99.90
20654;DHT22;21083;50.898;4.902;2024-02-21T10:09:19;10.50;99.90
20654;DHT22;21083;50.898;4.902;2024-02-21T10:11:46;10.60;99.90
20654;DHT22;21083;50.898;4.902;2024-02-21T10:14:14;10.60;99.90
20654;DHT22;21083;50.898;4.902;2024-02-21T10:16:43;10.50;99.90
20654;DHT22;21083;50.898;4.902;2024-02-21T10:19:17;10.50;99.90
20654;DHT22;21083;50.898;4.902;2024-02-21T10:21:45;10.40;99.90
20654;DHT22;21083;50.898;4.902;2024-02-21T10:24:13;10.40;99.90
20654;DHT22;21083;50.898;4.902;2024-02-21T10:26:42;10.50;99.90
20654;DHT22;21083;50.898;4.902;2024-02-21T10:29:10;10.60;99.90
20654;DHT22;21083;50.898;4.902;2024-02-21T10:31:37;10.70;99.90
20654;DHT22;21083;50.898;4.902;2024-02-21T10:34:07;10.70;99.90
20654;DHT22;21083;50.898;4.902;2024-02-21T10:36:34;10.90;99.90
20654;DHT22;21083;50.898;4.902;2024-02-21T10:39:02;10.70;99.90
20654;DHT22;21083;50.898;4.902;2024-02-21T10:41:30;10.70;99.90
20654;DHT22;21083;50.898;4.902;2024-02-21T10:44:00;10.70;99.90
20654;DHT22;21083;50.898;4.902;2024-02-21T10:46:30;10.70;99.90
20654;DHT22;21083;50.898;4.902;2024-02-21T10:49:03;10.70;99.90
20654;DHT22;21083;50.898;4.902;2024-02-21T10:51:39;10.90;99.90
20654;DHT22;21083;50.898;4.902;2024-02-21T10:54:17;10.90;99.90
20654;DHT22;21083;50.898;4.902;2024-02-21T10:56:51;10.90;99.90
20654;DHT22;21083;50.898;4.902;2024-02-21T10:59:19;11.00;99.90
20654;DHT22;21083;50.898;4.902;2024-02-21T11:01:47;11.00;99.90
20654;DHT22;21083;50.898;4.902;2024-02-21T11:04:15;11.10;99.90
20654;DHT22;21083;50.898;4.902;2024-02-21T11:06:44;10.90;99.90
20654;DHT22;21083;50.898;4.902;2024-02-21T11:09:13;10.90;99.90
20654;DHT22;21083;50.898;4.902;2024-02-21T11:11:43;10.80;99.90
20654;DHT22;21083;50.898;4.902;2024-02-21T11:14:11;10.90;99.90
20654;DHT22;21083;50.898;4.902;2024-02-21T11:16:40;10.90;99.90
20654;DHT22;21083;50.898;4.902;2024-02-21T11:19:08;10.90;99.90
20654;DHT22;21083;50.898;4.902;2024-02-21T11:21:37;10.90;99.90
20654;DHT22;21083;50.898;4.902;2024-02-21T11:24:06;10.90;99.90
20654;DHT22;21083;50.898;4.902;2024-02-21T11:26:36;11.00;99.90
20654;DHT22;21083;50.898;4.902;2024-02-21T11:29:04;11.00;99.90
20654;DHT22;21083;50.898;4.902;2024-02-21T11:31:41;11.00;99.90
20654;DHT22;21083;50.898;4.902;2024-02-21T11:34:09;11.10;99.90
20654;DHT22;21083;50.898;4.902;2024-02-21T11:36:46;11.00;99.90
20654;DHT22;21083;50.898;4.902;2024-02-21T11:39:20;11.20;99.90
20654;DHT22;21083;50.898;4.902;2024-02-21T11:41:59;11.30;99.90
20654;DHT22;21083;50.898;4.902;2024-02-21T11:44:27;11.20;99.90
20654;DHT22;21083;50.898;4.902;2024-02-21T11:46:54;11.30;99.90
20654;DHT22;21083;50.898;4.902;2024-02-21T11:49:21;11.20;99.90
20654;DHT22;21083;50.898;4.902;2024-02-21T11:51:49;11.30;99.90
20654;DHT22;21083;50.898;4.902;2024-02-21T11:54:26;11.40;99.90
20654;DHT22;21083;50.898;4.902;2024-02-21T11:56:54;11.30;99.90
20654;DHT22;21083;50.898;4.902;2024-02-21T11:59:21;11.20;99.90
20654;DHT22;21083;50.898;4.902;2024-02-21T12:01:50;11.20;99.90
20654;DHT22;21083;50.898;4.902;2024-02-21T12:04:18;11.30;99.90
20654;DHT22;21083;50.898;4.902;2024-02-21T12:06:46;11.10;99.90
20654;DHT22;21083;50.898;4.902;2024-02-21T12:09:14;11.10;99.90
20654;DHT22;21083;50.898;4.902;2024-02-21T12:11:44;11.10;99.90
20654;DHT22;21083;50.898;4.902;2024-02-21T12:14:16;11.00;99.90
20654;DHT22;21083;50.898;4.902;2024-02-21T12:16:45;11.00;99.90
20654;DHT22;21083;50.898;4.902;2024-02-21T12:19:13;11.00;99.90
20654;DHT22;21083;50.898;4.902;2024-02-21T12:21:42;10.90;99.90
20654;DHT22;21083;50.898;4.902;2024-02-21T12:24:15;10.90;99.90
20654;DHT22;21083;50.898;4.902;2024-02-21T12:26:44;10.70;99.90
20654;DHT22;21083;50.898;4.902;2024-02-21T12:29:11;10.70;99.90
20654;DHT22;21083;50.898;4.902;2024-02-21T12:31:38;10.70;99.90
20654;DHT22;21083;50.898;4.902;2024-02-21T12:34:06;10.80;99.90
20654;DHT22;21083;50.898;4.902;2024-02-21T12:36:40;10.90;99.90
20654;DHT22;21083;50.898;4.902;2024-02-21T12:39:07;11.00;99.90
20654;DHT22;21083;50.898;4.902;2024-02-21T12:41:35;11.00;99.90
20654;DHT22;21083;50.898;4.902;2024-02-21T12:44:05;11.00;99.90
20654;DHT22;21083;50.898;4.902;2024-02-21T12:46:33;10.90;99.90
20654;DHT22;21083;50.898;4.902;2024-02-21T12:49:01;11.00;99.90
20654;DHT22;21083;50.898;4.902;2024-02-21T12:51:29;11.10;99.90
20654;DHT22;21083;50.898;4.902;2024-02-21T12:53:56;11.00;99.90
20654;DHT22;21083;50.898;4.902;2024-02-21T12:56:23;10.90;99.90
20654;DHT22;21083;50.898;4.902;2024-02-21T12:58:53;10.90;99.90
20654;DHT22;21083;50.898;4.902;2024-02-21T13:01:21;11.00;99.90
20654;DHT22;21083;50.898;4.902;2024-02-21T13:03:49;11.00;99.90
20654;DHT22;21083;50.898;4.902;2024-02-21T13:06:16;11.00;99.90
20654;DHT22;21083;50.898;4.902;2024-02-21T13:08:44;11.00;99.90
20654;DHT22;21083;50.898;4.902;2024-02-21T13:11:13;11.00;99.90
20654;DHT22;21083;50.898;4.902;2024-02-21T13:13:40;11.00;99.90
20654;DHT22;21083;50.898;4.902;2024-02-21T13:16:08;11.00;99.90
20654;DHT22;21083;50.898;4.902;2024-02-21T13:18:37;11.10;99.90
20654;DHT22;21083;50.898;4.902;2024-02-21T13:21:05;11.10;99.90
20654;DHT22;21083;50.898;4.902;2024-02-21T13:23:33;11.10;99.90
20654;DHT22;21083;50.898;4.902;2024-02-21T13:26:01;11.00;99.90
20654;DHT22;21083;50.898;4.902;2024-02-21T13:28:28;11.10;99.90
20654;DHT22;21083;50.898;4.902;2024-02-21T13:30:55;11.10;99.90
20654;DHT22;21083;50.898;4.902;2024-02-21T13:33:23;11.10;99.90
20654;DHT22;21083;50.898;4.902;2024-02-21T13:35:52;11.20;99.90
20654;DHT22;21083;50.898;4.902;2024-02-21T13:38:19;11.10;99.90
20654;DHT22;21083;50.898;4.902;2024-02-21T13:40:46;11.10;99.90
20654;DHT22;21083;50.898;4.902;2024-02-21T13:43:13;11.10;99.90
20654;DHT22;21083;50.898;4.902;2024-02-21T13:45:41;11.20;99.90
20654;DHT22;21083;50.898;4.902;2024-02-21T13:48:22;11.20;99.90
20654;DHT22;21083;50.898;4.902;2024-02-21T13:50:51;11.00;99.90
20654;DHT22;21083;50.898;4.902;2024-02-21T13:53:19;10.90;99.90
20654;DHT22;21083;50.898;4.902;2024-02-21T13:55:47;11.00;99.90
20654;DHT22;21083;50.898;4.902;2024-02-21T13:58:15;11.00;99.90
20654;DHT22;21083;50.898;4.902;2024-02-21T14:00:43;11.00;99.90
20654;DHT22;21083;50.898;4.902;2024-02-21T14:03:10;10.90;99.90
20654;DHT22;21083;50.898;4.902;2024-02-21T14:05:37;10.80;99.90
20654;DHT22;21083;50.898;4.902;2024-02-21T14:08:07;10.90;99.90
20654;DHT22;21083;50.898;4.902;2024-02-21T14:10:34;10.90;99.90
20654;DHT22;21083;50.898;4.902;2024-02-21T14:13:03;10.90;99.90
20654;DHT22;21083;50.898;4.902;2024-02-21T14:15:30;10.90;99.90
20654;DHT22;21083;50.898;4.902;2024-02-21T14:17:58;10.90;99.90
20654;DHT22;21083;50.898;4.902;2024-02-21T14:20:25;10.90;99.90
20654;DHT22;21083;50.898;4.902;2024-02-21T14:22:53;10.90;99.90
20654;DHT22;21083;50.898;4.902;2024-02-21T14:25:22;10.90;99.90
20654;DHT22;21083;50.898;4.902;2024-02-21T14:27:50;10.80;99.90
20654;DHT22;21083;50.898;4.902;2024-02-21T14:30:18;10.90;99.90
20654;DHT22;21083;50.898;4.902;2024-02-21T14:32:45;10.80;99.90
20654;DHT22;21083;50.898;4.902;2024-02-21T14:35:12;10.80;99.90
20654;DHT22;21083;50.898;4.902;2024-02-21T14:37:42;10.80;99.90
20654;DHT22;21083;50.898;4.902;2024-02-21T14:40:11;10.80;99.90
20654;DHT22;21083;50.898;4.902;2024-02-21T14:42:41;10.90;99.90
20654;DHT22;21083;50.898;4.902;2024-02-21T14:45:09;11.00;99.90
20654;DHT22;21083;50.898;4.902;2024-02-21T14:47:36;10.90;99.90
20654;DHT22;21083;50.898;4.902;2024-02-21T14:50:04;10.90;99.90
20654;DHT22;21083;50.898;4.902;2024-02-21T14:52:31;10.80;99.90
20654;DHT22;21083;50.898;4.902;2024-02-21T14:55:00;10.70;99.90
20654;DHT22;21083;50.898;4.902;2024-02-21T14:57:29;10.80;99.90
20654;DHT22;21083;50.898;4.902;2024-02-21T14:59:58;10.70;99.90
20654;DHT22;21083;50.898;4.902;2024-02-21T15:02:25;10.70;99.90
20654;DHT22;21083;50.898;4.902;2024-02-21T15:04:54;10.70;99.90
20654;DHT22;21083;50.898;4.902;2024-02-21T15:07:22;10.80;99.90
20654;DHT22;21083;50.898;4.902;2024-02-21T15:09:59;10.60;99.90
20654;DHT22;21083;50.898;4.902;2024-02-21T15:12:27;10.60;99.90
20654;DHT22;21083;50.898;4.902;2024-02-21T15:14:58;10.50;99.90
20654;DHT22;21083;50.898;4.902;2024-02-21T15:17:26;10.40;99.90
20654;DHT22;21083;50.898;4.902;2024-02-21T15:19:55;10.50;99.90
20654;DHT22;21083;50.898;4.902;2024-02-21T15:22:24;10.60;99.90
20654;DHT22;21083;50.898;4.902;2024-02-21T15:24:52;10.60;99.90
20654;DHT22;21083;50.898;4.902;2024-02-21T15:27:20;10.60;99.90
20654;DHT22;21083;50.898;4.902;2024-02-21T15:29:47;10.50;99.90
20654;DHT22;21083;50.898;4.902;2024-02-21T15:32:20;10.50;99.90
20654;DHT22;21083;50.898;4.902;2024-02-21T15:34:48;10.50;99.90
20654;DHT22;21083;50.898;4.902;2024-02-21T15:37:15;10.60;99.90
20654;DHT22;21083;50.898;4.902;2024-02-21T15:39:43;10.70;99.90
20654;DHT22;21083;50.898;4.902;2024-02-21T15:42:10;10.60;99.90
20654;DHT22;21083;50.898;4.902;2024-02-21T15:44:37;10.50;99.90
20654;DHT22;21083;50.898;4.902;2024-02-21T15:47:05;10.50;99.90
20654;DHT22;21083;50.898;4.902;2024-02-21T15:49:34;10.50;99.90